Time;durP1;ratioP1;P1;durP2;ratioP2;P2;SDS_P1;SDS_P2;PMS_P1;PMS_P2;Temp;Humidity;BMP_temperature;BMP_pressure;BME280_temperature;BME280_humidity;BME280_pressure;Samples;Min_cycle;Max_cycle;Signal;HPM_P1;HPM_P2
2022/07/19 00:00:11;;;;;;;2.65;2.38;;;;;;;12.45;78.22;98857.50;4803434;29;20206;-64
2022/07/19 00:02:38;;;;;;;5.45;2.50;;;;;;;12.40;78.46;98855.63;4804039;29;20055;-62
2022/07/19 00:05:05;;;;;;;4.40;2.47;;;;;;;12.37;78.73;98861.44;4787024;29;20047;-64
2022/07/19 00:07:31;;;;;;;2.72;2.28;;;;;;;12.31;79.10;98859.84;4785863;30;20055;-63
2022/07/19 00:09:57;;;;;;;3.13;2.55;;;;;;;12.27;78.85;98861.44;4785752;29;20074;-65
2022/07/19 00:12:22;;;;;;;5.60;2.20;;;;;;;12.23;78.98;98857.69;4785645;30;20135;-63
2022/07/19 00:14:48;;;;;;;2.55;2.20;;;;;;;12.22;79.22;98858.75;4785944;30;20058;-64
2022/07/19 00:17:14;;;;;;;3.38;2.20;;;;;;;12.17;79.27;98854.22;4785907;30;20043;-62
2022/07/19 00:19:39;;;;;;;5.07;2.30;;;;;;;12.14;79.68;98867.22;4785921;30;20122;-61
2022/07/19 00:22:06;;;;;;;3.00;2.30;;;;;;;12.07;79.40;98859.50;4772002;30;20054;-63
2022/07/19 00:24:31;;;;;;;2.85;2.20;;;;;;;12.05;79.79;98861.59;4806334;29;20506;-63
2022/07/19 00:26:58;;;;;;;6.72;2.70;;;;;;;12.03;79.70;98861.88;4796800;29;20059;-63
2022/07/19 00:29:23;;;;;;;5.68;2.17;;;;;;;11.99;80.05;98863.44;4787450;30;20543;-65
2022/07/19 00:31:49;;;;;;;2.53;2.10;;;;;;;11.98;79.79;98861.06;4788969;29;20091;-64
2022/07/19 00:34:15;;;;;;;2.63;1.95;;;;;;;11.92;79.73;98862.88;4787478;30;20054;-63
2022/07/19 00:36:41;;;;;;;3.28;2.25;;;;;;;11.91;79.92;98866.63;4788708;30;20154;-63
2022/07/19 00:39:07;;;;;;;7.65;2.45;;;;;;;11.89;80.06;98866.06;4772349;30;20047;-64
2022/07/19 00:41:38;;;;;;;3.60;2.40;;;;;;;11.85;80.04;98869.44;4788480;29;20261;-64
2022/07/19 00:44:04;;;;;;;2.15;1.95;;;;;;;11.82;80.15;98868.09;4772413;30;20146;-63
2022/07/19 00:46:29;;;;;;;4.00;2.08;;;;;;;11.81;80.58;98869.97;4788482;29;20201;-63
2022/07/19 00:48:55;;;;;;;3.72;2.47;;;;;;;11.82;80.34;98868.94;4789219;29;20043;-63
2022/07/19 00:51:21;;;;;;;3.38;2.00;;;;;;;11.86;80.08;98863.13;4788376;30;20059;-62
2022/07/19 00:53:47;;;;;;;3.63;1.90;;;;;;;11.91;79.89;98868.44;4788547;30;20050;-63
2022/07/19 00:56:13;;;;;;;4.05;2.10;;;;;;;11.94;79.80;98866.09;4788234;30;20055;-63
2022/07/19 00:58:40;;;;;;;2.97;1.98;;;;;;;11.99;79.73;98868.75;4772331;30;20047;-63
2022/07/19 01:01:07;;;;;;;4.50;1.90;;;;;;;12.08;79.22;98865.59;4788292;29;20058;-64
2022/07/19 01:03:39;;;;;;;6.22;3.15;;;;;;;12.12;79.00;98862.19;4788622;30;20058;-63
2022/07/19 01:06:06;;;;;;;3.60;2.63;;;;;;;12.18;78.93;98863.78;4788446;30;20047;-63
2022/07/19 01:08:32;;;;;;;2.25;1.98;;;;;;;12.19;78.55;98860.06;4788435;30;20059;-63
2022/07/19 01:10:58;;;;;;;3.10;1.90;;;;;;;12.20;78.27;98858.22;4798622;29;20047;-64
2022/07/19 01:13:24;;;;;;;3.17;1.98;;;;;;;12.24;78.44;98861.97;4789998;29;20058;-63
2022/07/19 01:15:50;;;;;;;3.10;2.33;;;;;;;12.26;78.19;98867.78;4806026;29;20095;-64
2022/07/19 01:18:15;;;;;;;3.17;1.85;;;;;;;12.27;77.89;98861.44;4789811;29;20129;-62
2022/07/19 01:20:41;;;;;;;2.47;2.10;;;;;;;12.29;78.08;98869.94;4789013;29;20540;-65
2022/07/19 01:23:07;;;;;;;2.95;2.00;;;;;;;12.32;77.95;98865.94;4789808;29;20058;-63
2022/07/19 01:25:35;;;;;;;3.95;2.03;;;;;;;12.40;78.09;98874.22;4789641;29;20463;-65
2022/07/19 01:28:03;;;;;;;5.00;2.20;;;;;;;12.56;77.24;98860.97;4806081;29;20051;-63
2022/07/19 01:30:28;;;;;;;4.70;2.42;;;;;;;12.63;76.51;98867.63;4805358;29;20057;-63
2022/07/19 01:32:56;;;;;;;4.82;2.60;;;;;;;12.66;76.04;98868.97;4804945;29;20405;-62
2022/07/19 01:35:21;;;;;;;4.05;2.40;;;;;;;12.81;76.00;98866.31;4806034;29;20055;-62
2022/07/19 01:37:48;;;;;;;3.92;2.40;;;;;;;13.12;74.54;98866.34;4805853;29;20403;-63
2022/07/19 01:40:15;;;;;;;2.63;2.28;;;;;;;13.59;72.76;98865.28;4798879;29;20043;-63
2022/07/19 01:42:41;;;;;;;2.08;1.85;;;;;;;14.07;70.85;98866.44;4787813;30;20230;-63
2022/07/19 01:45:08;;;;;;;2.92;1.95;;;;;;;14.45;69.17;98858.81;4787363;29;20078;-63
2022/07/19 01:47:34;;;;;;;2.40;2.20;;;;;;;14.91;67.85;98855.88;4771262;30;20100;-63
2022/07/19 01:50:00;;;;;;;3.72;1.70;;;;;;;15.22;65.76;98858.28;4787238;30;20426;-63
2022/07/19 01:52:25;;;;;;;2.75;1.55;;;;;;;15.60;65.18;98861.91;4787490;30;20102;-64
2022/07/19 01:54:51;;;;;;;4.10;1.90;;;;;;;16.15;63.10;98874.16;4787526;30;20048;-64
2022/07/19 01:57:17;;;;;;;3.38;1.70;;;;;;;16.53;61.63;98875.00;4771266;30;20528;-65
2022/07/19 01:59:42;;;;;;;1.80;1.38;;;;;;;16.80;60.32;98872.50;4785707;29;20142;-64
2022/07/19 02:02:08;;;;;;;5.20;1.48;;;;;;;16.74;60.07;98870.97;4786137;30;20054;-64
2022/07/19 02:04:34;;;;;;;1.85;1.63;;;;;;;16.34;61.13;98873.13;4787867;29;20406;-63
2022/07/19 02:07:00;;;;;;;4.45;3.33;;;;;;;16.02;62.67;98867.66;4805201;29;20572;-64
2022/07/19 02:09:26;;;;;;;2.22;2.03;;;;;;;15.82;62.82;98876.69;4773748;29;20054;-63
2022/07/19 02:11:52;;;;;;;1.77;1.67;;;;;;;16.01;62.75;98876.75;4788901;29;20082;-64
2022/07/19 02:14:18;;;;;;;5.22;1.92;;;;;;;16.06;61.61;98884.69;4805208;29;20074;-64
2022/07/19 02:16:44;;;;;;;2.50;1.80;;;;;;;15.83;62.76;98884.44;4788799;29;20090;-64
2022/07/19 02:19:10;;;;;;;3.45;1.80;;;;;;;15.57;63.08;98883.06;4804192;29;20051;-63
2022/07/19 02:21:37;;;;;;;3.75;1.80;;;;;;;15.42;63.92;98886.69;4788939;29;20043;-64
2022/07/19 02:24:04;;;;;;;3.70;3.20;;;;;;;15.32;64.50;98890.22;4776891;30;20510;-64
2022/07/19 02:26:30;;;;;;;3.00;2.70;;;;;;;15.19;64.80;98888.22;4785630;30;20079;-65
2022/07/19 02:28:56;;;;;;;4.97;3.40;;;;;;;15.19;65.00;98896.22;4786872;30;20421;-63
2022/07/19 02:31:22;;;;;;;4.22;2.88;;;;;;;15.15;65.15;98892.53;4786886;30;20502;-64
2022/07/19 02:33:48;;;;;;;4.50;3.45;;;;;;;15.15;65.06;98898.66;4770545;30;20043;-63
2022/07/19 02:36:14;;;;;;;4.88;3.13;;;;;;;15.36;64.46;98898.50;4786967;30;20072;-64
2022/07/19 02:38:40;;;;;;;5.95;3.60;;;;;;;15.70;63.44;98898.44;4780907;29;20051;-64
2022/07/19 02:41:05;;;;;;;4.82;3.72;;;;;;;16.04;62.47;98900.25;4800204;29;20126;-64
2022/07/19 02:43:31;;;;;;;3.85;2.72;;;;;;;16.75;60.09;98906.56;4786315;30;20324;-63
2022/07/19 02:45:57;;;;;;;3.70;1.90;;;;;;;17.68;57.14;98902.13;4778068;30;20511;-63
2022/07/19 02:48:22;;;;;;;3.90;2.05;;;;;;;18.34;55.67;98907.34;4770364;30;20085;-64
2022/07/19 02:50:48;;;;;;;2.50;1.52;;;;;;;18.48;54.60;98910.00;4787093;29;20054;-64
2022/07/19 02:53:14;;;;;;;2.03;1.80;;;;;;;18.57;53.95;98903.63;4770438;30;20108;-64
2022/07/19 02:55:39;;;;;;;5.10;3.38;;;;;;;19.04;53.10;98908.78;4786704;29;20080;-64
2022/07/19 02:58:05;;;;;;;5.45;1.92;;;;;;;19.36;51.73;98907.75;4798267;29;20043;-63
2022/07/19 03:00:32;;;;;;;1.95;1.80;;;;;;;19.51;51.16;98909.25;4804226;29;20081;-64
2022/07/19 03:05:43;;;;;;;4.13;2.38;;;;;;;18.41;54.02;98902.34;4804402;29;20421;-65
2022/07/19 03:08:08;;;;;;;2.38;1.58;;;;;;;17.87;55.08;98901.28;4804662;29;20138;-64
2022/07/19 03:10:34;;;;;;;4.95;2.38;;;;;;;17.61;56.49;98917.00;4804503;29;20057;-66
2022/07/19 03:12:59;;;;;;;2.97;2.38;;;;;;;17.38;57.06;98908.00;4804618;29;20054;-64
2022/07/19 03:15:25;;;;;;;3.25;2.28;;;;;;;17.01;58.16;98915.84;4804565;29;20042;-65
2022/07/19 03:17:51;;;;;;;1.92;1.55;;;;;;;16.57;58.96;98905.47;4772933;30;20070;-63
2022/07/19 03:20:16;;;;;;;2.63;1.80;;;;;;;16.44;60.04;98906.97;4785075;30;20058;-66
2022/07/19 03:22:42;;;;;;;3.03;2.40;;;;;;;16.40;60.21;98903.28;4786307;29;20070;-64
2022/07/19 03:25:08;;;;;;;4.80;2.28;;;;;;;16.55;60.04;98907.63;4770046;30;20454;-64
2022/07/19 03:27:34;;;;;;;5.10;1.80;;;;;;;16.56;60.02;98906.56;4786334;30;20071;-63
2022/07/19 03:30:00;;;;;;;2.20;1.60;;;;;;;16.86;59.12;98913.38;4786239;30;20051;-64
2022/07/19 03:32:25;;;;;;;3.03;1.65;;;;;;;17.62;57.04;98922.09;4786276;30;20448;-64
2022/07/19 03:34:51;;;;;;;4.00;1.90;;;;;;;18.39;54.43;98913.41;4769911;30;20047;-64
2022/07/19 03:37:17;;;;;;;2.92;1.80;;;;;;;18.99;53.01;98914.28;4785968;29;20476;-65
2022/07/19 03:39:43;;;;;;;3.50;1.83;;;;;;;19.37;51.59;98921.97;4786199;29;20044;-65
2022/07/19 03:42:09;;;;;;;3.65;1.90;;;;;;;19.58;51.26;98919.56;4786188;30;20047;-64
2022/07/19 03:44:35;;;;;;;1.73;1.50;;;;;;;19.84;50.28;98917.81;4785900;29;20054;-64
2022/07/19 03:47:00;;;;;;;1.50;1.40;;;;;;;19.85;50.12;98915.91;4786117;30;20084;-65
2022/07/19 03:49:26;;;;;;;4.60;1.88;;;;;;;19.93;49.95;98921.34;4786125;30;20077;-66
2022/07/19 03:51:52;;;;;;;3.42;1.60;;;;;;;19.99;49.37;98922.00;4786018;30;20058;-65
2022/07/19 03:54:18;;;;;;;5.88;1.75;;;;;;;20.13;49.39;98919.19;4786102;30;20163;-65
2022/07/19 03:56:43;;;;;;;4.22;1.67;;;;;;;20.19;49.07;98920.66;4785804;29;20441;-63
2022/07/19 03:59:09;;;;;;;2.03;1.30;;;;;;;20.19;48.56;98918.75;4789481;29;20043;-64
2022/07/19 04:01:35;;;;;;;1.25;1.20;;;;;;;20.00;48.96;98922.78;4789485;29;20051;-63
2022/07/19 04:04:00;;;;;;;1.50;1.40;;;;;;;19.98;48.99;98927.69;4743608;30;20047;-64
2022/07/19 04:06:26;;;;;;;1.05;1.05;;;;;;;20.00;48.81;98925.47;4789163;30;20053;-64
2022/07/19 04:08:52;;;;;;;1.50;1.40;;;;;;;20.02;49.16;98918.69;4789119;30;20043;-65
2022/07/19 04:11:17;;;;;;;2.20;1.10;;;;;;;20.15;48.97;98923.16;4772960;30;20047;-64
2022/07/19 04:13:43;;;;;;;1.33;1.23;;;;;;;20.24;48.29;98925.09;4788967;30;20426;-65
2022/07/19 04:16:08;;;;;;;2.50;1.50;;;;;;;20.25;48.91;98918.59;4773136;30;20050;-66
2022/07/19 04:18:34;;;;;;;3.30;1.40;;;;;;;20.34;48.43;98927.50;4789448;30;20149;-65
2022/07/19 04:21:00;;;;;;;3.10;2.20;;;;;;;20.43;48.12;98914.84;4789199;30;20039;-64
2022/07/19 04:23:25;;;;;;;3.63;1.38;;;;;;;20.62;47.88;98923.47;4795558;29;20050;-64
2022/07/19 04:25:51;;;;;;;7.22;1.67;;;;;;;20.68;47.69;98928.69;4790996;29;20045;-65
2022/07/19 04:28:17;;;;;;;3.35;1.45;;;;;;;20.69;47.76;98923.00;4775949;29;20055;-63
2022/07/19 04:30:42;;;;;;;3.58;1.83;;;;;;;20.84;47.42;98919.03;4806972;29;20058;-65
2022/07/19 04:33:08;;;;;;;1.38;1.27;;;;;;;20.68;47.50;98920.59;4806769;29;20055;-65
2022/07/19 04:35:33;;;;;;;2.03;1.50;;;;;;;20.84;47.18;98922.53;4805066;29;20141;-63
2022/07/19 04:37:59;;;;;;;3.83;1.30;;;;;;;21.01;47.09;98919.03;4806783;29;20532;-63
2022/07/19 04:40:25;;;;;;;1.75;1.50;;;;;;;21.15;46.49;98924.28;4790664;29;20108;-62
2022/07/19 04:42:50;;;;;;;1.67;1.27;;;;;;;21.09;46.88;98923.63;4806264;29;20062;-63
2022/07/19 04:45:16;;;;;;;1.90;1.60;;;;;;;21.15;46.39;98918.88;4806480;29;20137;-61
2022/07/19 04:47:42;;;;;;;3.38;2.30;;;;;;;21.00;46.53;98913.94;4806727;29;20148;-64
2022/07/19 04:50:08;;;;;;;2.28;1.65;;;;;;;21.03;46.13;98924.09;4790249;29;20162;-62
2022/07/19 04:52:33;;;;;;;2.30;1.17;;;;;;;20.71;46.84;98926.16;4789194;29;20058;-63
2022/07/19 04:54:59;;;;;;;2.30;1.50;;;;;;;20.78;46.69;98925.69;4805773;29;20047;-66
2022/07/19 04:57:25;;;;;;;1.55;1.17;;;;;;;20.74;46.76;98924.75;4806319;29;20629;-64
2022/07/19 04:59:50;;;;;;;1.42;1.15;;;;;;;20.74;46.54;98914.75;4806298;29;20059;-65
2022/07/19 05:02:16;;;;;;;3.22;1.30;;;;;;;20.91;46.46;98911.25;4789866;29;20055;-63
2022/07/19 05:04:42;;;;;;;4.03;1.35;;;;;;;20.97;46.46;98919.97;4806168;29;20484;-65
2022/07/19 05:07:07;;;;;;;3.83;1.63;;;;;;;21.08;45.93;98921.25;4789784;29;20375;-63
2022/07/19 05:09:33;;;;;;;5.43;1.45;;;;;;;20.77;47.24;98910.66;4806126;29;20073;-66
2022/07/19 05:12:00;;;;;;;2.53;1.25;;;;;;;20.44;47.16;98911.03;4788017;29;20047;-65
2022/07/19 05:14:25;;;;;;;3.08;1.50;;;;;;;20.46;47.78;98908.03;4787789;30;20075;-66
2022/07/19 05:16:51;;;;;;;4.15;1.33;;;;;;;20.42;47.41;98916.75;4788230;29;20470;-64
2022/07/19 05:19:17;;;;;;;2.58;1.30;;;;;;;20.24;47.65;98908.97;4771979;30;20100;-64
2022/07/19 05:21:43;;;;;;;1.30;1.20;;;;;;;20.15;47.49;98917.78;4781042;29;20422;-65
2022/07/19 05:24:09;;;;;;;1.58;1.48;;;;;;;19.95;48.85;98923.72;4789543;29;20050;-64
2022/07/19 05:26:35;;;;;;;1.60;1.40;;;;;;;19.72;48.90;98915.72;4805932;29;20081;-65
2022/07/19 05:29:02;;;;;;;3.90;1.70;;;;;;;19.71;49.34;98913.34;4804539;29;20053;-63
2022/07/19 05:31:28;;;;;;;2.17;1.30;;;;;;;19.77;49.58;98922.84;4789081;29;20077;-65
2022/07/19 05:33:54;;;;;;;1.60;1.50;;;;;;;19.72;49.40;98918.41;4805561;29;20078;-65
2022/07/19 05:36:19;;;;;;;2.03;1.40;;;;;;;19.66;49.72;98918.84;4805886;29;20074;-65
2022/07/19 05:38:45;;;;;;;3.45;1.50;;;;;;;19.72;49.56;98929.16;4805151;29;20125;-63
2022/07/19 05:41:11;;;;;;;2.47;1.30;;;;;;;19.67;49.97;98928.50;4793407;29;20051;-63
2022/07/19 05:43:38;;;;;;;3.05;1.40;;;;;;;19.85;49.72;98930.16;4786148;30;20116;-63
2022/07/19 05:46:04;;;;;;;2.55;1.42;;;;;;;19.89;49.45;98928.44;4794209;29;20130;-63
2022/07/19 05:48:30;;;;;;;4.97;1.73;;;;;;;19.82;48.99;98929.97;4800875;29;20086;-62
2022/07/19 05:50:57;;;;;;;2.05;1.70;;;;;;;19.62;49.19;98929.41;4804468;29;20092;-66
2022/07/19 05:53:22;;;;;;;1.98;1.40;;;;;;;19.41;49.96;98920.25;4803143;29;20061;-65
2022/07/19 05:55:48;;;;;;;3.38;1.70;;;;;;;19.40;50.25;98924.81;4797733;29;20047;-64
2022/07/19 05:58:17;;;;;;;3.33;1.50;;;;;;;19.36;49.95;98923.06;4769882;29;20145;-65
2022/07/19 06:01:17;;;;;;;2.05;1.40;;;;;;;19.26;50.55;98924.09;4801856;29;20595;-65
2022/07/19 06:03:29;;;;;;;2.05;1.40;;;;;;;19.44;50.03;98925.00;4803131;29;20050;-64
2022/07/19 06:05:55;;;;;;;1.65;1.55;;;;;;;19.39;49.67;98917.88;4804145;29;20046;-64
2022/07/19 06:08:20;;;;;;;1.92;1.50;;;;;;;19.24;50.43;98919.03;4801118;29;20466;-64
2022/07/19 06:10:47;;;;;;;2.95;1.35;;;;;;;19.34;49.67;98925.28;4786121;29;20050;-65
2022/07/19 06:13:13;;;;;;;3.42;1.88;;;;;;;19.08;50.83;98922.41;4804207;29;20055;-63
2022/07/19 06:15:38;;;;;;;1.92;1.52;;;;;;;19.04;50.28;98922.22;4786292;29;20047;-66
2022/07/19 06:18:04;;;;;;;3.00;1.40;;;;;;;19.10;49.67;98917.53;4803191;29;20066;-63
2022/07/19 06:20:30;;;;;;;6.10;2.10;;;;;;;19.21;50.10;98916.97;4787778;29;20051;-65
2022/07/19 06:22:56;;;;;;;1.83;1.30;;;;;;;19.25;48.96;98917.16;4800578;29;20100;-63
2022/07/19 06:25:22;;;;;;;2.15;1.35;;;;;;;19.28;49.35;98916.53;4785891;30;20051;-63
2022/07/19 06:27:48;;;;;;;1.20;1.20;;;;;;;19.28;49.54;98913.84;4794080;29;20047;-63
2022/07/19 06:30:13;;;;;;;2.08;1.30;;;;;;;19.35;48.97;98916.09;4786952;29;20620;-64
2022/07/19 06:32:39;;;;;;;1.27;1.27;;;;;;;19.25;48.78;98909.88;4794408;29;20054;-65
2022/07/19 06:35:05;;;;;;;10.40;1.67;;;;;;;19.40;49.00;98910.59;4768961;29;20486;-63
2022/07/19 06:37:31;;;;;;;2.20;1.90;;;;;;;19.19;48.80;98913.00;4785798;29;20504;-63
2022/07/19 06:39:57;;;;;;;3.85;1.85;;;;;;;19.11;49.19;98919.88;4784548;29;20053;-65
2022/07/19 06:42:23;;;;;;;2.15;1.40;;;;;;;19.16;49.30;98910.91;4760635;29;20158;-63
2022/07/19 06:44:49;;;;;;;3.30;1.50;;;;;;;19.13;49.12;98919.59;4782867;29;20137;-61
2022/07/19 06:47:15;;;;;;;2.20;1.35;;;;;;;18.93;47.64;98920.84;4791406;29;20045;-63
2022/07/19 06:49:41;;;;;;;1.15;1.15;;;;;;;18.90;47.54;98916.88;4802345;29;20115;-62
2022/07/19 06:52:06;;;;;;;2.38;1.45;;;;;;;18.98;48.29;98923.44;4802062;29;20516;-64
2022/07/19 06:54:32;;;;;;;3.75;1.50;;;;;;;19.17;48.78;98912.50;4820377;29;20046;-65
2022/07/19 06:56:58;;;;;;;1.63;1.42;;;;;;;19.22;47.37;98913.19;4792974;29;20103;-64
2022/07/19 06:59:24;;;;;;;5.13;1.60;;;;;;;19.13;47.81;98912.31;4784991;30;20048;-65
2022/07/19 07:01:49;;;;;;;7.72;1.70;;;;;;;19.17;47.99;98928.63;4787845;29;20053;-62
2022/07/19 07:04:15;;;;;;;5.85;1.38;;;;;;;19.21;47.19;98916.97;4797179;29;20532;-64
2022/07/19 07:06:41;;;;;;;1.92;1.20;;;;;;;19.23;47.10;98916.66;4785134;29;20058;-64
2022/07/19 07:09:06;;;;;;;1.77;1.55;;;;;;;19.19;47.27;98913.78;4787699;29;20043;-63
2022/07/19 07:11:32;;;;;;;2.90;1.50;;;;;;;19.22;47.35;98920.44;4810372;29;20046;-61
2022/07/19 07:13:58;;;;;;;4.07;1.30;;;;;;;19.40;46.92;98918.66;4802292;29;20042;-61
2022/07/19 07:16:23;;;;;;;3.28;1.20;;;;;;;19.43;46.07;98907.28;4800890;29;20112;-65
2022/07/19 07:18:49;;;;;;;3.08;1.85;;;;;;;19.49;45.90;98912.22;4802926;29;20046;-64
2022/07/19 07:21:14;;;;;;;2.17;1.10;;;;;;;19.42;45.96;98921.84;4784048;29;20537;-64
2022/07/19 07:23:40;;;;;;;2.60;1.42;;;;;;;19.37;46.99;98920.06;4802309;29;20494;-62
2022/07/19 07:26:06;;;;;;;5.78;1.95;;;;;;;19.49;47.22;98922.19;4799156;29;20043;-64
2022/07/19 07:28:32;;;;;;;4.20;1.80;;;;;;;19.68;46.96;98920.13;4796150;29;20471;-66
2022/07/19 07:30:57;;;;;;;4.00;1.40;;;;;;;19.90;46.67;98923.84;4789280;29;20123;-63
2022/07/19 07:33:23;;;;;;;1.52;1.20;;;;;;;19.79;45.59;98923.31;4798781;29;20048;-63
2022/07/19 07:35:49;;;;;;;1.13;1.10;;;;;;;19.56;45.31;98919.88;4789371;30;20134;-65
2022/07/19 07:38:15;;;;;;;2.80;1.30;;;;;;;19.49;45.94;98922.19;4773137;30;20051;-63
2022/07/19 07:40:41;;;;;;;3.00;1.52;;;;;;;19.35;47.05;98924.16;4788242;30;20050;-65
2022/07/19 07:43:06;;;;;;;2.33;1.33;;;;;;;19.45;47.38;98926.59;4789205;30;20489;-63
2022/07/19 07:45:32;;;;;;;4.53;1.83;;;;;;;19.45;47.58;98919.34;4789289;30;20447;-63
2022/07/19 07:47:58;;;;;;;1.77;1.30;;;;;;;19.79;46.55;98917.16;4789409;30;20046;-64
2022/07/19 07:50:24;;;;;;;2.17;1.23;;;;;;;20.04;45.64;98921.84;4789307;30;20051;-62
2022/07/19 07:52:50;;;;;;;6.05;1.52;;;;;;;20.24;42.36;98928.59;4788878;30;20536;-63
2022/07/19 07:55:15;;;;;;;1.58;1.00;;;;;;;20.18;42.56;98925.25;4772950;30;20051;-64
2022/07/19 07:57:41;;;;;;;1.30;1.20;;;;;;;20.10;42.77;98931.38;4772814;30;20079;-63
2022/07/19 08:00:09;;;;;;;2.30;1.10;;;;;;;19.77;43.40;98924.75;4788936;30;20051;-66
2022/07/19 08:02:42;;;;;;;2.28;1.20;;;;;;;19.79;43.28;98933.28;4789264;30;20051;-64
2022/07/19 08:05:09;;;;;;;1.50;1.40;;;;;;;19.69;44.32;98935.16;4789092;30;20057;-63
2022/07/19 08:07:35;;;;;;;2.63;1.40;;;;;;;19.62;45.53;98932.09;4772809;30;20521;-63
2022/07/19 08:10:05;;;;;;;2.30;1.42;;;;;;;19.82;44.27;98935.38;4788628;30;20074;-64
2022/07/19 08:12:31;;;;;;;;;;;;;;;19.56;44.61;98938.69;4789440;30;20086;-63
2022/07/19 08:14:56;;;;;;;3.08;1.30;;;;;;;19.62;43.40;98934.78;4788642;30;19936;-64
2022/07/19 08:17:22;;;;;;;15.30;2.00;;;;;;;19.89;43.65;98939.22;4788801;30;20051;-63
2022/07/19 08:19:48;;;;;;;2.83;1.20;;;;;;;20.02;43.05;98928.66;4788601;30;20051;-65
2022/07/19 08:22:18;;;;;;;3.05;1.70;;;;;;;20.02;43.97;98928.66;4788892;30;20051;-63
2022/07/19 08:24:44;;;;;;;3.55;1.30;;;;;;;20.05;43.30;98928.81;4772418;30;20043;-62
2022/07/19 08:27:10;;;;;;;6.65;1.60;;;;;;;20.16;42.26;98929.34;4772346;30;20058;-64
2022/07/19 08:29:36;;;;;;;3.75;1.30;;;;;;;20.31;42.45;98928.13;4788877;30;20051;-63
2022/07/19 08:32:02;;;;;;;1.40;1.30;;;;;;;20.20;42.39;98938.38;4788590;30;20104;-64
2022/07/19 08:34:28;;;;;;;4.50;1.52;;;;;;;20.24;41.50;98939.34;4788737;30;20130;-63
2022/07/19 08:36:54;;;;;;;2.55;1.42;;;;;;;20.25;41.04;98934.75;4772207;30;20509;-62
2022/07/19 08:39:19;;;;;;;3.28;1.67;;;;;;;20.25;41.81;98926.69;4787123;30;20055;-64
2022/07/19 08:41:46;;;;;;;1.95;1.52;;;;;;;20.47;41.81;98934.66;4787619;29;20142;-64
2022/07/19 08:44:13;;;;;;;2.55;1.40;;;;;;;20.22;40.90;98924.63;4771946;30;20063;-63
2022/07/19 08:46:41;;;;;;;1.90;1.40;;;;;;;20.14;41.02;98929.63;4772098;30;20637;-64
2022/07/19 08:49:11;;;;;;;2.45;1.40;;;;;;;20.16;41.52;98926.66;4787984;30;20129;-64
2022/07/19 08:51:37;;;;;;;5.75;1.48;;;;;;;20.35;41.20;98923.69;4788187;30;20104;-63
2022/07/19 08:54:03;;;;;;;2.55;1.58;;;;;;;20.50;41.45;98919.75;4788073;30;20051;-66
2022/07/19 08:59:13;;;;;;;1.20;1.20;;;;;;;20.43;41.32;98918.31;4786805;30;20058;-64
2022/07/19 09:01:39;;;;;;;4.32;1.60;;;;;;;20.51;40.88;98922.16;4772031;30;20121;-62
2022/07/19 09:04:13;;;;;;;1.75;1.27;;;;;;;20.47;40.31;98917.69;4788158;30;20073;-64
2022/07/19 09:06:43;;;;;;;3.45;1.60;;;;;;;20.39;40.37;98928.13;4788012;30;20155;-64
2022/07/19 09:09:10;;;;;;;4.43;1.65;;;;;;;20.40;40.73;98927.03;4788045;30;20047;-64
2022/07/19 09:11:48;;;;;;;7.30;1.70;;;;;;;20.56;40.90;98902.38;4771941;30;20047;-64
2022/07/19 09:14:16;;;;;;;2.05;1.05;;;;;;;20.74;40.22;98913.97;4787639;30;20075;-63
2022/07/19 09:16:47;;;;;;;3.47;1.25;;;;;;;20.69;40.52;98909.53;4787898;30;20063;-64
2022/07/19 09:19:13;;;;;;;1.42;1.33;;;;;;;20.74;40.50;98908.59;4786434;30;20047;-65
2022/07/19 09:22:01;;;;;;;5.47;1.60;;;;;;;20.87;39.62;98913.00;4787577;30;20066;-64
2022/07/19 09:24:28;;;;;;;3.00;1.40;;;;;;;20.76;37.88;98909.03;4787700;30;20055;-63
2022/07/19 09:27:08;;;;;;;2.83;1.20;;;;;;;20.46;37.39;98908.81;4787668;30;20189;-63
2022/07/19 09:29:36;;;;;;;3.00;1.70;;;;;;;20.44;39.39;98905.66;4787870;30;20054;-63
2022/07/19 09:32:07;;;;;;;1.77;1.10;;;;;;;20.67;39.09;98902.88;4787463;30;20465;-64
2022/07/19 09:34:37;;;;;;;6.35;1.42;;;;;;;20.79;39.19;98897.63;4787424;30;20051;-64
2022/07/19 09:37:11;;;;;;;2.83;1.25;;;;;;;20.96;38.99;98896.84;4771141;30;20528;-63
2022/07/19 09:39:41;;;;;;;2.55;1.20;;;;;;;21.07;38.47;98901.59;4771151;30;20112;-64
2022/07/19 09:42:10;;;;;;;3.00;1.30;;;;;;;21.05;39.17;98903.81;4787455;30;20108;-63
2022/07/19 09:44:36;;;;;;;2.63;1.60;;;;;;;20.79;39.26;98892.25;4771056;30;20071;-64
2022/07/19 09:47:03;;;;;;;5.72;1.83;;;;;;;20.68;39.43;98897.19;4787230;30;20047;-66
2022/07/19 09:49:28;;;;;;;2.47;1.52;;;;;;;20.81;39.42;98901.59;4786191;30;20074;-63
2022/07/19 09:51:55;;;;;;;7.43;1.40;;;;;;;20.91;38.56;98905.88;4787369;30;20120;-65
2022/07/19 09:54:26;;;;;;;1.52;1.00;;;;;;;20.70;38.58;98886.88;4786063;29;20485;-63
2022/07/19 09:56:53;;;;;;;5.65;1.70;;;;;;;20.54;39.75;98897.31;4770967;30;20055;-64
2022/07/19 09:59:20;;;;;;;1.58;1.10;;;;;;;20.44;39.78;98900.25;4787226;30;20114;-64
2022/07/19 10:01:48;;;;;;;1.35;1.25;;;;;;;20.61;40.05;98896.84;4770765;30;20047;-63
2022/07/19 10:04:16;;;;;;;3.80;1.25;;;;;;;20.87;39.54;98902.25;4787028;30;20047;-65
2022/07/19 10:06:42;;;;;;;2.03;1.25;;;;;;;21.18;39.12;98902.06;4787046;30;20067;-64
2022/07/19 10:09:10;;;;;;;2.97;1.65;;;;;;;21.52;38.90;98897.75;4785750;30;20055;-66
2022/07/19 10:11:37;;;;;;;3.33;1.33;;;;;;;21.61;39.10;98897.72;4770355;30;20043;-65
2022/07/19 10:14:11;;;;;;;26.63;3.40;;;;;;;21.42;39.45;98912.38;5068161;28;20406;-63
2022/07/19 10:16:49;;;;;;;5.72;1.70;;;;;;;21.31;40.06;98901.09;5067124;28;20056;-63
2022/07/19 10:19:22;;;;;;;2.13;1.65;;;;;;;21.40;39.75;98903.78;5068256;28;20559;-63
2022/07/19 10:21:48;;;;;;;3.50;2.20;;;;;;;21.24;39.87;98902.69;5066951;28;20556;-64
2022/07/19 10:24:14;;;;;;;4.18;1.60;;;;;;;21.13;40.59;98891.44;5066801;28;20076;-66
2022/07/19 10:26:42;;;;;;;4.85;1.63;;;;;;;21.20;40.08;98899.81;5067945;28;20076;-65
2022/07/19 10:29:08;;;;;;;1.75;1.35;;;;;;;21.04;39.59;98899.53;5067012;28;20132;-65
2022/07/19 10:31:37;;;;;;;6.15;1.40;;;;;;;20.84;39.62;98892.09;5068263;28;20040;-66
2022/07/19 10:34:11;;;;;;;1.73;1.50;;;;;;;20.68;40.51;98901.75;5068186;28;20521;-65
2022/07/19 10:36:39;;;;;;;2.15;1.42;;;;;;;20.47;41.38;98899.66;5066730;28;20106;-66
2022/07/19 10:39:26;;;;;;;5.20;1.35;;;;;;;20.37;41.92;98900.72;5066814;28;20076;-63
2022/07/19 10:42:14;;;;;;;4.13;1.25;;;;;;;20.30;41.32;98903.09;5066355;28;20157;-66
2022/07/19 10:45:01;;;;;;;2.33;1.30;;;;;;;20.18;41.71;98902.91;5067789;28;20123;-65
2022/07/19 10:47:39;;;;;;;5.43;1.67;;;;;;;20.00;42.14;98894.00;5067359;28;20045;-65
2022/07/19 10:50:09;;;;;;;3.00;1.23;;;;;;;19.94;41.93;98889.84;5066557;28;20564;-64
2022/07/19 10:52:39;;;;;;;1.88;1.65;;;;;;;20.00;41.72;98888.63;5067697;28;20049;-64
2022/07/19 10:55:17;;;;;;;4.85;1.30;;;;;;;20.10;41.49;98892.91;5067530;28;20273;-64
2022/07/19 10:57:45;;;;;;;1.83;1.17;;;;;;;20.20;42.12;98884.53;5067696;28;20048;-64
2022/07/19 11:00:21;;;;;;;1.60;1.17;;;;;;;20.17;42.80;98888.66;5067742;28;20056;-64
2022/07/19 11:02:47;;;;;;;3.65;1.13;;;;;;;20.30;42.90;98883.47;5066025;28;20550;-65
2022/07/19 11:05:27;;;;;;;6.05;1.20;;;;;;;20.38;42.82;98883.50;5066161;28;20159;-64
2022/07/19 11:07:55;;;;;;;2.85;1.00;;;;;;;20.47;42.92;98885.38;5066000;28;20036;-64
2022/07/19 11:10:25;;;;;;;1.88;1.30;;;;;;;20.53;43.22;98874.19;5067140;28;20457;-64
2022/07/19 11:12:51;;;;;;;;;;;;;;;20.50;43.57;98872.09;5067248;28;20056;-64
2022/07/19 11:15:17;;;;;;;2.20;1.20;;;;;;;20.50;44.43;98880.19;5049272;28;19920;-64
2022/07/19 11:17:56;;;;;;;4.90;1.45;;;;;;;20.56;43.82;98880.81;5065873;28;20052;-64
2022/07/19 11:20:23;;;;;;;3.00;1.33;;;;;;;20.66;43.47;98882.44;5066983;28;20048;-65
2022/07/19 11:22:50;;;;;;;1.80;1.40;;;;;;;20.72;43.23;98875.78;5066906;28;20136;-64
2022/07/19 11:25:17;;;;;;;1.58;1.00;;;;;;;20.88;43.13;98876.88;5055272;28;20083;-65
2022/07/19 11:27:45;;;;;;;1.27;1.17;;;;;;;20.97;42.39;98882.25;5035936;28;20114;-64
2022/07/19 11:30:12;;;;;;;4.03;1.45;;;;;;;20.87;42.22;98886.88;5053475;28;20506;-63
2022/07/19 11:32:41;;;;;;;3.92;1.65;;;;;;;20.79;42.40;98879.56;5053454;28;20132;-64
2022/07/19 11:35:08;;;;;;;4.90;2.13;;;;;;;20.85;42.43;98883.72;5053270;28;20079;-64
2022/07/19 11:37:36;;;;;;;2.95;1.50;;;;;;;21.12;42.56;98884.50;5052152;28;20072;-64